FWI25C TFFR-TFFF
Flight info
| Callsign | FWI25C |
|---|---|
| Flight time | 0h 37m |
| Altitude | 14000 |
| Route | KATIM2F KATIM DCT KAREX DCT FOF |
| Aircraft | AT75/M-SDFGIRY/S |
Departure
| Time | 2026-05-05 21:00 |
|---|---|
| Airport | Maryse Condé International Airport (TFFR) |
Arrival
| Time | 2026-05-05 21:37 |
|---|---|
| Airport | Martinique Aimé Césaire International Airport (TFFF) |
| Time | Latitude | Longitude | Altitude | Speed | Heading |
|---|---|---|---|---|---|
| 2026-05-05 20:49 | 16.27088 | -61.52894 | 19 ft | 0 kts | 236° |
| 2026-05-05 20:56 | 16.27110 | -61.52906 | 19 ft | 6 kts | 358° |
| 2026-05-05 20:56 | 16.27125 | -61.52948 | 19 ft | 10 kts | 263° |
| 2026-05-05 20:56 | 16.27041 | -61.53043 | 19 ft | 22 kts | 193° |
| 2026-05-05 20:57 | 16.26920 | -61.53017 | 19 ft | 14 kts | 156° |
| 2026-05-05 20:57 | 16.26864 | -61.52964 | 19 ft | 8 kts | 96° |
| 2026-05-05 20:57 | 16.26847 | -61.52925 | 19 ft | 4 kts | 171° |
| 2026-05-05 20:57 | 16.26786 | -61.52939 | 19 ft | 16 kts | 192° |
| 2026-05-05 20:58 | 16.26657 | -61.52967 | 19 ft | 17 kts | 188° |
| 2026-05-05 20:58 | 16.26553 | -61.52983 | 22 ft | 15 kts | 191° |
| 2026-05-05 20:58 | 16.26515 | -61.53129 | 23 ft | 44 kts | 282° |
| 2026-05-05 20:58 | 16.26550 | -61.53400 | 29 ft | 13 kts | 272° |
| 2026-05-05 20:59 | 16.26565 | -61.53373 | 28 ft | 8 kts | 98° |
| 2026-05-05 20:59 | 16.26534 | -61.53202 | 25 ft | 59 kts | 100° |
| 2026-05-05 20:59 | 16.26450 | -61.52747 | 23 ft | 104 kts | 102° |
| 2026-05-05 20:59 | 16.26296 | -61.51929 | 242 ft | 122 kts | 103° |
| 2026-05-05 21:00 | 16.26123 | -61.51064 | 672 ft | 123 kts | 102° |
| 2026-05-05 21:00 | 16.25953 | -61.50172 | 976 ft | 134 kts | 101° |
| 2026-05-05 21:00 | 16.25771 | -61.49155 | 1271 ft | 147 kts | 102° |
| 2026-05-05 21:00 | 16.25577 | -61.48098 | 1655 ft | 152 kts | 103° |
| 2026-05-05 21:01 | 16.25371 | -61.46997 | 2042 ft | 157 kts | 103° |
| 2026-05-05 21:01 | 16.25173 | -61.45901 | 2409 ft | 161 kts | 101° |
| 2026-05-05 21:01 | 16.24963 | -61.44752 | 2786 ft | 164 kts | 102° |
| 2026-05-05 21:01 | 16.24749 | -61.43568 | 3164 ft | 167 kts | 101° |
| 2026-05-05 21:02 | 16.24155 | -61.42571 | 3558 ft | 169 kts | 145° |
| 2026-05-05 21:02 | 16.23040 | -61.42128 | 4001 ft | 171 kts | 164° |
| 2026-05-05 21:02 | 16.21857 | -61.41944 | 4481 ft | 167 kts | 171° |
| 2026-05-05 21:02 | 16.20696 | -61.41862 | 4819 ft | 171 kts | 174° |
| 2026-05-05 21:03 | 16.19493 | -61.41810 | 5205 ft | 171 kts | 175° |
| 2026-05-05 21:03 | 16.18293 | -61.41773 | 5540 ft | 174 kts | 175° |
| 2026-05-05 21:03 | 16.17075 | -61.41738 | 5869 ft | 177 kts | 175° |
| 2026-05-05 21:03 | 16.15849 | -61.41706 | 6234 ft | 177 kts | 175° |
| 2026-05-05 21:04 | 16.14620 | -61.41675 | 6579 ft | 178 kts | 175° |
| 2026-05-05 21:04 | 16.13384 | -61.41643 | 6915 ft | 179 kts | 175° |
| 2026-05-05 21:04 | 16.12122 | -61.41611 | 7252 ft | 180 kts | 175° |
| 2026-05-05 21:04 | 16.10872 | -61.41579 | 7577 ft | 181 kts | 175° |
| 2026-05-05 21:05 | 16.09624 | -61.41547 | 7895 ft | 182 kts | 175° |
| 2026-05-05 21:05 | 16.08358 | -61.41515 | 8210 ft | 183 kts | 175° |
| 2026-05-05 21:05 | 16.07083 | -61.41482 | 8519 ft | 184 kts | 175° |
| 2026-05-05 21:05 | 16.05800 | -61.41450 | 8824 ft | 185 kts | 175° |
| 2026-05-05 21:06 | 16.04513 | -61.41416 | 9122 ft | 186 kts | 175° |
| 2026-05-05 21:06 | 16.03214 | -61.41383 | 9417 ft | 187 kts | 176° |
| 2026-05-05 21:06 | 16.01930 | -61.41351 | 9701 ft | 188 kts | 176° |
| 2026-05-05 21:06 | 16.00627 | -61.41317 | 9983 ft | 189 kts | 176° |
| 2026-05-05 21:07 | 15.99304 | -61.41285 | 10263 ft | 190 kts | 176° |
| 2026-05-05 21:07 | 15.97991 | -61.41268 | 10535 ft | 190 kts | 176° |
| 2026-05-05 21:07 | 15.96672 | -61.41251 | 10801 ft | 191 kts | 176° |
| 2026-05-05 21:07 | 15.95330 | -61.41235 | 11067 ft | 192 kts | 176° |
| 2026-05-05 21:08 | 15.94008 | -61.41219 | 11322 ft | 193 kts | 176° |
| 2026-05-05 21:08 | 15.92659 | -61.41202 | 11578 ft | 194 kts | 176° |
| 2026-05-05 21:08 | 15.91304 | -61.41186 | 11828 ft | 195 kts | 176° |
| 2026-05-05 21:08 | 15.89971 | -61.41169 | 12070 ft | 195 kts | 176° |
| 2026-05-05 21:09 | 15.88588 | -61.41153 | 12314 ft | 196 kts | 176° |
| 2026-05-05 21:09 | 15.87214 | -61.41137 | 12551 ft | 197 kts | 176° |
| 2026-05-05 21:09 | 15.85854 | -61.41120 | 12781 ft | 198 kts | 176° |
| 2026-05-05 21:09 | 15.84480 | -61.41103 | 13007 ft | 199 kts | 176° |
| 2026-05-05 21:10 | 15.83084 | -61.41087 | 13232 ft | 199 kts | 176° |
| 2026-05-05 21:10 | 15.81708 | -61.41070 | 13449 ft | 200 kts | 176° |
| 2026-05-05 21:10 | 15.80309 | -61.41053 | 13665 ft | 201 kts | 176° |
| 2026-05-05 21:10 | 15.78909 | -61.41036 | 13876 ft | 202 kts | 176° |
| 2026-05-05 21:11 | 15.77510 | -61.41018 | 14014 ft | 206 kts | 176° |
| 2026-05-05 21:11 | 15.76039 | -61.40999 | 14040 ft | 216 kts | 176° |
| 2026-05-05 21:11 | 15.74507 | -61.40980 | 14044 ft | 225 kts | 176° |
| 2026-05-05 21:11 | 15.72910 | -61.40960 | 14043 ft | 233 kts | 176° |
| 2026-05-05 21:12 | 15.71273 | -61.40940 | 14042 ft | 240 kts | 176° |
| 2026-05-05 21:12 | 15.69577 | -61.40920 | 14040 ft | 246 kts | 176° |
| 2026-05-05 21:12 | 15.67860 | -61.40900 | 14039 ft | 250 kts | 176° |
| 2026-05-05 21:12 | 15.66112 | -61.40878 | 14038 ft | 254 kts | 176° |
| 2026-05-05 21:13 | 15.64338 | -61.40857 | 14038 ft | 258 kts | 176° |
| 2026-05-05 21:13 | 15.62528 | -61.40835 | 14037 ft | 261 kts | 177° |
| 2026-05-05 21:13 | 15.60707 | -61.40813 | 14037 ft | 263 kts | 177° |
| 2026-05-05 21:13 | 15.58885 | -61.40791 | 14036 ft | 265 kts | 177° |
| 2026-05-05 21:14 | 15.57041 | -61.40769 | 14036 ft | 267 kts | 177° |
| 2026-05-05 21:14 | 15.55190 | -61.40746 | 14036 ft | 268 kts | 177° |
| 2026-05-05 21:14 | 15.53313 | -61.40724 | 14036 ft | 269 kts | 177° |
| 2026-05-05 21:14 | 15.51446 | -61.40701 | 14035 ft | 270 kts | 177° |
| 2026-05-05 21:15 | 15.49575 | -61.40678 | 14035 ft | 271 kts | 177° |
| 2026-05-05 21:15 | 15.47672 | -61.40655 | 14035 ft | 272 kts | 177° |
| 2026-05-05 21:15 | 15.45805 | -61.40633 | 14035 ft | 272 kts | 177° |
| 2026-05-05 21:15 | 15.43914 | -61.40610 | 14035 ft | 273 kts | 177° |
| 2026-05-05 21:16 | 15.42020 | -61.40586 | 14035 ft | 273 kts | 177° |
| 2026-05-05 21:16 | 15.40111 | -61.40564 | 14035 ft | 273 kts | 177° |
| 2026-05-05 21:16 | 15.38243 | -61.40366 | 14039 ft | 272 kts | 169° |
| 2026-05-05 21:16 | 15.36371 | -61.40086 | 14035 ft | 272 kts | 169° |
| 2026-05-05 21:17 | 15.34499 | -61.39800 | 14035 ft | 272 kts | 169° |
| 2026-05-05 21:17 | 15.32629 | -61.39515 | 14035 ft | 272 kts | 169° |
| 2026-05-05 21:17 | 15.30753 | -61.39228 | 14035 ft | 273 kts | 169° |
| 2026-05-05 21:17 | 15.28889 | -61.38944 | 14035 ft | 273 kts | 169° |
| 2026-05-05 21:18 | 15.26999 | -61.38656 | 14035 ft | 273 kts | 169° |
| 2026-05-05 21:18 | 15.25124 | -61.38370 | 14035 ft | 273 kts | 169° |
| 2026-05-05 21:18 | 15.23253 | -61.38084 | 14035 ft | 273 kts | 169° |
| 2026-05-05 21:18 | 15.21386 | -61.37799 | 13984 ft | 275 kts | 169° |
| 2026-05-05 21:19 | 15.19479 | -61.37509 | 13975 ft | 275 kts | 169° |
| 2026-05-05 21:19 | 15.17577 | -61.37219 | 13973 ft | 275 kts | 169° |
| 2026-05-05 21:19 | 15.15695 | -61.36932 | 13972 ft | 274 kts | 169° |
| 2026-05-05 21:19 | 15.13815 | -61.36646 | 13972 ft | 274 kts | 169° |
| 2026-05-05 21:20 | 15.11949 | -61.36361 | 13972 ft | 274 kts | 169° |
| 2026-05-05 21:20 | 15.10045 | -61.36071 | 13972 ft | 274 kts | 169° |
| 2026-05-05 21:20 | 15.08174 | -61.35786 | 13972 ft | 274 kts | 169° |
| 2026-05-05 21:20 | 15.06306 | -61.35502 | 13972 ft | 274 kts | 169° |
| 2026-05-05 21:21 | 15.04429 | -61.35216 | 13972 ft | 274 kts | 169° |
| 2026-05-05 21:21 | 15.02525 | -61.34926 | 13973 ft | 274 kts | 169° |
| 2026-05-05 21:21 | 15.00648 | -61.34640 | 13975 ft | 274 kts | 169° |
| 2026-05-05 21:21 | 14.98774 | -61.34354 | 13975 ft | 274 kts | 170° |
| 2026-05-05 21:22 | 14.96891 | -61.34068 | 13975 ft | 274 kts | 170° |
| 2026-05-05 21:22 | 14.94997 | -61.33780 | 13975 ft | 274 kts | 170° |
| 2026-05-05 21:22 | 14.93107 | -61.33493 | 13975 ft | 274 kts | 170° |
| 2026-05-05 21:22 | 14.91250 | -61.33211 | 13975 ft | 274 kts | 170° |
| 2026-05-05 21:23 | 14.89344 | -61.32921 | 13975 ft | 274 kts | 170° |
| 2026-05-05 21:23 | 14.87452 | -61.32633 | 13974 ft | 274 kts | 171° |
| 2026-05-05 21:23 | 14.85572 | -61.32348 | 13974 ft | 274 kts | 171° |
| 2026-05-05 21:23 | 14.83690 | -61.32062 | 13974 ft | 274 kts | 171° |
| 2026-05-05 21:24 | 14.81823 | -61.31779 | 13974 ft | 274 kts | 171° |
| 2026-05-05 21:24 | 14.79927 | -61.31491 | 13974 ft | 274 kts | 171° |
| 2026-05-05 21:24 | 14.78063 | -61.31208 | 13974 ft | 274 kts | 171° |
| 2026-05-05 21:24 | 14.76179 | -61.30922 | 13974 ft | 274 kts | 171° |
| 2026-05-05 21:25 | 14.74301 | -61.30637 | 13974 ft | 274 kts | 171° |
| 2026-05-05 21:25 | 14.72407 | -61.30349 | 13974 ft | 274 kts | 171° |
| 2026-05-05 21:25 | 14.70533 | -61.30065 | 13975 ft | 270 kts | 171° |
| 2026-05-05 21:25 | 14.68721 | -61.29790 | 13712 ft | 261 kts | 170° |
| 2026-05-05 21:26 | 14.66919 | -61.29516 | 13134 ft | 266 kts | 171° |
| 2026-05-05 21:26 | 14.65076 | -61.29236 | 12456 ft | 273 kts | 171° |
| 2026-05-05 21:26 | 14.63188 | -61.28949 | 11721 ft | 280 kts | 171° |
| 2026-05-05 21:26 | 14.61262 | -61.28659 | 10984 ft | 285 kts | 171° |
| 2026-05-05 21:27 | 14.59309 | -61.28363 | 10246 ft | 289 kts | 171° |
| 2026-05-05 21:27 | 14.57364 | -61.27909 | 9452 ft | 291 kts | 153° |
| 2026-05-05 21:27 | 14.55921 | -61.26525 | 8697 ft | 289 kts | 121° |
| 2026-05-05 21:27 | 14.55215 | -61.24589 | 7943 ft | 289 kts | 101° |
| 2026-05-05 21:28 | 14.55316 | -61.22536 | 7197 ft | 287 kts | 82° |
| 2026-05-05 21:28 | 14.55640 | -61.20519 | 6448 ft | 287 kts | 81° |
| 2026-05-05 21:28 | 14.55982 | -61.18512 | 5701 ft | 285 kts | 80° |
| 2026-05-05 21:28 | 14.56327 | -61.16499 | 4981 ft | 282 kts | 80° |
| 2026-05-05 21:29 | 14.56662 | -61.14542 | 4492 ft | 272 kts | 80° |
| 2026-05-05 21:29 | 14.56987 | -61.12639 | 3982 ft | 264 kts | 81° |
| 2026-05-05 21:29 | 14.56788 | -61.10837 | 3434 ft | 260 kts | 114° |
| 2026-05-05 21:29 | 14.55573 | -61.09501 | 2904 ft | 260 kts | 147° |
| 2026-05-05 21:30 | 14.53820 | -61.09130 | 2374 ft | 264 kts | 182° |
| 2026-05-05 21:30 | 14.52175 | -61.09886 | 2020 ft | 260 kts | 220° |
| 2026-05-05 21:30 | 14.51247 | -61.11431 | 1985 ft | 241 kts | 242° |
| 2026-05-05 21:30 | 14.50516 | -61.12909 | 1956 ft | 223 kts | 248° |
| 2026-05-05 21:31 | 14.50561 | -61.14396 | 1959 ft | 202 kts | 296° |
| 2026-05-05 21:31 | 14.51460 | -61.15353 | 1955 ft | 176 kts | 341° |
| 2026-05-05 21:31 | 14.52570 | -61.15408 | 1957 ft | 149 kts | 26° |
| 2026-05-05 21:31 | 14.53249 | -61.14749 | 2046 ft | 123 kts | 63° |
| 2026-05-05 21:32 | 14.53879 | -61.14175 | 1953 ft | 116 kts | 39° |
| 2026-05-05 21:32 | 14.54501 | -61.13741 | 1949 ft | 99 kts | 39° |
| 2026-05-05 21:32 | 14.55020 | -61.13384 | 1866 ft | 94 kts | 40° |
| 2026-05-05 21:32 | 14.55508 | -61.13010 | 2008 ft | 109 kts | 45° |
| 2026-05-05 21:33 | 14.56026 | -61.12475 | 2165 ft | 103 kts | 53° |
| 2026-05-05 21:33 | 14.56480 | -61.11867 | 2020 ft | 109 kts | 59° |
| 2026-05-05 21:33 | 14.56869 | -61.11203 | 1851 ft | 105 kts | 63° |
| 2026-05-05 21:33 | 14.57187 | -61.10568 | 1767 ft | 98 kts | 67° |
| 2026-05-05 21:34 | 14.57437 | -61.09912 | 1686 ft | 98 kts | 73° |
| 2026-05-05 21:34 | 14.57604 | -61.09202 | 1571 ft | 100 kts | 81° |
| 2026-05-05 21:34 | 14.57671 | -61.08737 | 1514 ft | 98 kts | 83° |
| 2026-05-05 21:34 | 14.57804 | -61.07819 | 1280 ft | 96 kts | 81° |
| 2026-05-05 21:35 | 14.57918 | -61.07143 | 1151 ft | 96 kts | 79° |
| 2026-05-05 21:35 | 14.58055 | -61.06480 | 1010 ft | 94 kts | 78° |
| 2026-05-05 21:35 | 14.58189 | -61.05804 | 839 ft | 96 kts | 80° |
| 2026-05-05 21:35 | 14.58286 | -61.05129 | 751 ft | 95 kts | 82° |
| 2026-05-05 21:36 | 14.58384 | -61.04468 | 599 ft | 94 kts | 80° |
| 2026-05-05 21:36 | 14.58505 | -61.03805 | 473 ft | 93 kts | 79° |
| 2026-05-05 21:36 | 14.58627 | -61.03156 | 341 ft | 93 kts | 79° |
| 2026-05-05 21:36 | 14.58734 | -61.02502 | 209 ft | 92 kts | 80° |
| 2026-05-05 21:37 | 14.58847 | -61.01846 | 82 ft | 93 kts | 79° |
| 2026-05-05 21:37 | 14.58959 | -61.01201 | 23 ft | 87 kts | 79° |
| 2026-05-05 21:37 | 14.59053 | -61.00662 | 22 ft | 66 kts | 81° |
| 2026-05-05 21:37 | 14.59120 | -61.00261 | 22 ft | 44 kts | 78° |
| 2026-05-05 21:38 | 14.59172 | -61.00016 | 22 ft | 21 kts | 51° |
| 2026-05-05 21:38 | 14.59288 | -61.00020 | 22 ft | 17 kts | 353° |
| 2026-05-05 21:38 | 14.59363 | -60.99970 | 22 ft | 12 kts | 78° |
| 2026-05-05 21:38 | 14.59376 | -60.99897 | 22 ft | 8 kts | 79° |
| 2026-05-05 21:39 | 14.59410 | -60.99876 | 22 ft | 7 kts | 356° |
| 2026-05-05 21:39 | 14.59462 | -60.99883 | 22 ft | 4 kts | 2° |
| 2026-05-05 21:39 | 14.59470 | -60.99871 | 22 ft | 0 kts | 75° |